Time;durP1;ratioP1;P1;durP2;ratioP2;P2;SDS_P1;SDS_P2;PMS_P1;PMS_P2;Temp;Humidity;BMP_temperature;BMP_pressure;BME280_temperature;BME280_humidity;BME280_pressure;Samples;Min_cycle;Max_cycle;Signal;HPM_P1;HPM_P2
2022/05/08 00:01:49;;;;;;;4.20;1.70;;;;;;;20.37;59.23;100784.41;5032914;28;20242;-59
2022/05/08 00:04:14;;;;;;;4.50;2.23;;;;;;;20.37;58.94;100781.53;5033084;28;20179;-59
2022/05/08 00:06:40;;;;;;;4.20;1.87;;;;;;;20.37;59.22;100781.53;5033145;28;20177;-59
2022/05/08 00:09:05;;;;;;;4.33;2.43;;;;;;;20.38;59.15;100788.09;5032811;28;20176;-59
2022/05/08 00:11:31;;;;;;;2.60;1.70;;;;;;;20.38;59.52;100783.22;5032818;28;20204;-59
2022/05/08 00:13:56;;;;;;;8.00;1.70;;;;;;;20.36;59.15;100788.47;5032356;28;20211;-59
2022/05/08 00:16:22;;;;;;;3.83;1.70;;;;;;;20.37;58.87;100778.66;5032344;28;20184;-59
2022/05/08 00:18:47;;;;;;;4.33;1.90;;;;;;;20.36;59.47;100784.81;5032900;28;20203;-59
2022/05/08 00:21:13;;;;;;;7.30;2.00;;;;;;;20.37;59.20;100778.66;5031946;28;20192;-59
2022/05/08 00:23:38;;;;;;;3.47;1.90;;;;;;;20.35;59.11;100778.22;5032714;28;20176;-59
2022/05/08 00:26:07;;;;;;;3.30;1.77;;;;;;;20.34;59.10;100770.84;5032270;28;20642;-59
2022/05/08 00:28:33;;;;;;;2.40;1.70;;;;;;;20.36;59.14;100773.34;5032568;28;20450;-59
2022/05/08 00:30:59;;;;;;;3.50;1.90;;;;;;;20.34;59.35;100776.56;5032212;28;20969;-59
2022/05/08 00:33:24;;;;;;;4.90;1.70;;;;;;;20.35;58.84;100777.38;5032553;28;20415;-59
2022/05/08 00:35:50;;;;;;;2.77;1.47;;;;;;;20.34;59.51;100770.84;5032263;28;20234;-58
2022/05/08 00:38:15;;;;;;;2.87;1.77;;;;;;;20.34;59.47;100770.84;5014602;28;20187;-58
2022/05/08 00:40:41;;;;;;;4.27;2.00;;;;;;;20.33;59.38;100774.09;5032241;28;20168;-58
2022/05/08 00:43:32;;;;;;;2.50;1.60;;;;;;;20.33;59.20;100772.06;5032521;28;20177;-59
2022/05/08 00:45:59;;;;;;;2.70;1.80;;;;;;;20.33;59.21;100774.94;5029342;28;20241;-59
2022/05/08 00:48:24;;;;;;;2.80;1.70;;;;;;;20.33;59.32;100768.34;5032334;28;20430;-59
2022/05/08 00:50:51;;;;;;;3.00;2.00;;;;;;;20.32;59.49;100775.31;5030503;28;20427;-59
2022/05/08 00:53:16;;;;;;;3.00;1.50;;;;;;;20.32;59.59;100778.97;5013905;28;20169;-59
2022/05/08 00:55:42;;;;;;;2.60;1.73;;;;;;;20.32;59.60;100773.25;5031954;28;20430;-59
2022/05/08 00:58:08;;;;;;;3.80;1.77;;;;;;;20.33;59.24;100776.94;5032337;28;20179;-59
2022/05/08 01:00:33;;;;;;;3.90;2.27;;;;;;;20.31;59.20;100771.59;5032027;28;20180;-59
2022/05/08 01:02:59;;;;;;;3.23;1.53;;;;;;;20.32;59.35;100781.03;5031972;28;20246;-59
2022/05/08 01:05:24;;;;;;;2.70;1.57;;;;;;;20.31;59.73;100777.31;5013983;28;20678;-59
2022/05/08 01:07:50;;;;;;;3.73;2.10;;;;;;;20.32;59.23;100772.44;5014379;28;20180;-59
2022/05/08 01:10:16;;;;;;;2.90;1.70;;;;;;;20.31;59.58;100768.72;5031760;28;20768;-59
2022/05/08 01:12:44;;;;;;;2.53;1.70;;;;;;;20.31;59.39;100770.78;5031710;28;20190;-59
2022/05/08 01:15:18;;;;;;;2.73;1.67;;;;;;;20.31;59.55;100777.31;5031448;28;20261;-59
2022/05/08 01:17:43;;;;;;;2.83;1.60;;;;;;;20.30;59.45;100769.94;5031388;28;20426;-59
2022/05/08 01:20:09;;;;;;;2.83;1.80;;;;;;;20.31;59.50;100773.66;5031548;28;20435;-59
2022/05/08 01:22:34;;;;;;;2.90;1.77;;;;;;;20.29;59.68;100767.44;5031431;28;20177;-59
2022/05/08 01:25:00;;;;;;;3.47;1.70;;;;;;;20.30;59.42;100767.06;5031348;28;20624;-59
2022/05/08 01:27:25;;;;;;;4.63;1.90;;;;;;;20.30;59.49;100767.06;5031470;28;20161;-59
2022/05/08 01:29:51;;;;;;;3.47;1.70;;;;;;;20.29;59.83;100768.28;5031271;28;20228;-58
2022/05/08 01:32:16;;;;;;;2.57;1.57;;;;;;;20.28;59.51;100765.78;5031095;28;20173;-59
2022/05/08 01:34:41;;;;;;;2.43;1.47;;;;;;;20.29;59.37;100762.56;5031123;28;20231;-59
2022/05/08 01:37:07;;;;;;;3.37;1.90;;;;;;;20.29;59.40;100758.84;5031233;28;20183;-59
2022/05/08 01:39:32;;;;;;;3.60;2.00;;;;;;;20.28;59.42;100757.19;5031494;28;20180;-59
2022/05/08 01:41:58;;;;;;;2.80;1.57;;;;;;;20.28;59.39;100760.06;5031456;28;20188;-59
2022/05/08 01:44:24;;;;;;;4.60;1.70;;;;;;;20.27;59.39;100762.09;5031207;28;20552;-59
2022/05/08 01:48:21;;;;;;;2.67;1.50;;;;;;;20.27;59.70;100759.22;5030810;28;20426;-59
2022/05/08 01:49:35;;;;;;;3.83;1.40;;;;;;;20.28;59.73;100765.78;5031212;28;20261;-59
2022/05/08 01:52:00;;;;;;;3.80;1.60;;;;;;;20.27;59.52;100762.09;5031041;28;20423;-59
2022/05/08 01:54:26;;;;;;;3.23;1.67;;;;;;;20.27;59.56;100764.97;5031178;28;20200;-59
2022/05/08 01:56:51;;;;;;;2.83;1.43;;;;;;;20.26;59.70;100768.22;5030866;28;20582;-59
2022/05/08 01:59:16;;;;;;;2.50;1.60;;;;;;;20.27;59.75;100770.69;5031055;28;20173;-59
2022/05/08 02:01:43;;;;;;;3.10;1.77;;;;;;;20.26;59.70;100769.03;5030878;28;20226;-60
2022/05/08 02:04:15;;;;;;;4.80;2.10;;;;;;;20.26;59.46;100777.63;5030916;28;20597;-59
2022/05/08 02:06:41;;;;;;;2.00;1.30;;;;;;;20.25;59.72;100770.25;5030388;28;20751;-59
2022/05/08 02:09:06;;;;;;;3.67;1.67;;;;;;;20.25;59.68;100766.53;5031075;28;20764;-60
2022/05/08 02:11:32;;;;;;;4.20;1.83;;;;;;;20.25;59.70;100778.84;5030374;28;20469;-59
2022/05/08 02:13:58;;;;;;;5.37;1.60;;;;;;;20.25;59.73;100776.00;5029366;28;20193;-59
2022/05/08 02:16:24;;;;;;;2.20;1.43;;;;;;;20.24;59.73;100771.47;5028381;28;20211;-60
2022/05/08 02:18:50;;;;;;;2.30;1.37;;;;;;;20.24;59.68;100768.59;5029059;28;20507;-59
2022/05/08 02:21:15;;;;;;;3.00;1.70;;;;;;;20.24;59.82;100770.63;5029943;28;20188;-58
2022/05/08 02:23:41;;;;;;;2.20;1.50;;;;;;;20.25;59.44;100769.41;5030358;28;20526;-59
2022/05/08 02:26:06;;;;;;;2.47;1.40;;;;;;;20.23;60.07;100769.81;5030599;28;20177;-59
2022/05/08 02:28:31;;;;;;;3.83;1.93;;;;;;;20.25;59.72;100769.41;5030748;28;20171;-59
2022/05/08 02:30:57;;;;;;;3.80;1.73;;;;;;;20.24;59.53;100771.47;5030361;28;20231;-59
2022/05/08 02:33:22;;;;;;;2.90;1.80;;;;;;;20.23;59.81;100766.94;5030700;28;20219;-59
2022/05/08 02:35:48;;;;;;;2.60;1.50;;;;;;;20.22;60.00;100759.53;5030134;28;20255;-58
2022/05/08 02:38:13;;;;;;;3.20;1.70;;;;;;;20.23;59.62;100769.81;5030322;28;20195;-59
2022/05/08 02:40:39;;;;;;;3.00;1.70;;;;;;;20.22;59.72;100762.41;5029856;28;20180;-59
2022/05/08 02:43:04;;;;;;;2.27;1.47;;;;;;;20.22;59.77;100762.41;5030262;28;20180;-59
2022/05/08 02:45:30;;;;;;;3.27;1.90;;;;;;;20.23;59.67;100761.22;5030591;28;20176;-59
2022/05/08 02:47:56;;;;;;;2.53;1.70;;;;;;;20.22;59.86;100767.31;5030593;28;20153;-59
2022/05/08 02:50:22;;;;;;;2.00;1.40;;;;;;;20.21;59.84;100769.34;5030774;28;20547;-59
2022/05/08 02:52:47;;;;;;;3.53;1.70;;;;;;;20.22;59.21;100767.31;5030547;28;20469;-58
2022/05/08 03:00:42;;;;;;;2.67;1.70;;;;;;;20.21;59.58;100765.69;5030656;28;20577;-58
2022/05/08 03:03:08;;;;;;;3.40;1.87;;;;;;;20.21;59.93;100765.69;5030564;28;20936;-59
2022/05/08 03:05:33;;;;;;;3.30;2.00;;;;;;;20.20;59.73;100770.56;5030555;28;20423;-59
2022/05/08 03:08:00;;;;;;;3.43;1.80;;;;;;;20.20;59.75;100770.56;5030346;28;20184;-59
2022/05/08 03:10:25;;;;;;;3.67;1.40;;;;;;;20.20;59.85;100769.72;5030435;28;20195;-59
2022/05/08 03:12:51;;;;;;;2.53;1.60;;;;;;;20.20;59.64;100769.72;5030243;28;20427;-59
2022/05/08 03:15:17;;;;;;;2.43;1.40;;;;;;;20.19;59.55;100768.91;5030213;28;20219;-59
2022/05/08 03:17:42;;;;;;;3.00;1.47;;;;;;;20.19;59.96;100774.66;5032301;28;20181;-59
2022/05/08 03:20:09;;;;;;;3.07;1.37;;;;;;;20.20;59.78;100766.84;5033848;28;20180;-59
2022/05/08 03:22:34;;;;;;;3.53;1.63;;;;;;;20.20;59.65;100775.47;5033547;28;20666;-59
2022/05/08 03:25:00;;;;;;;3.80;1.60;;;;;;;20.19;59.74;100762.34;5033487;28;20415;-59
2022/05/08 03:27:25;;;;;;;2.93;1.50;;;;;;;20.19;59.97;100777.53;5033545;28;20180;-59
2022/05/08 03:29:50;;;;;;;2.37;1.43;;;;;;;20.19;59.75;100774.66;5033700;28;20228;-59
2022/05/08 03:32:16;;;;;;;2.60;1.50;;;;;;;20.19;60.05;100777.53;5033493;28;20195;-59
2022/05/08 03:34:41;;;;;;;3.27;1.97;;;;;;;20.18;59.83;100770.13;5033879;28;20215;-59
2022/05/08 03:37:07;;;;;;;2.67;1.77;;;;;;;20.18;59.92;100769.28;5033471;28;20234;-59
2022/05/08 03:39:32;;;;;;;2.67;1.60;;;;;;;20.17;59.98;100773.38;5033547;28;20653;-59
2022/05/08 03:41:58;;;;;;;3.17;1.60;;;;;;;20.17;59.79;100770.50;5032414;28;20180;-58
2022/05/08 03:44:23;;;;;;;3.57;1.60;;;;;;;20.17;59.81;100782.78;5032408;28;20180;-59
2022/05/08 03:46:49;;;;;;;2.20;1.40;;;;;;;20.16;59.52;100778.28;5033267;28;20172;-59
2022/05/08 03:49:14;;;;;;;2.57;1.33;;;;;;;20.16;59.95;100781.13;5033394;28;20181;-59
2022/05/08 03:51:40;;;;;;;2.40;1.50;;;;;;;20.16;59.85;100778.28;5033055;28;20168;-59
2022/05/08 03:54:08;;;;;;;2.00;1.30;;;;;;;20.15;59.83;100779.47;5033258;28;20220;-59
2022/05/08 03:56:35;;;;;;;2.97;1.57;;;;;;;20.15;59.68;100773.75;5033157;28;20181;-59
2022/05/08 03:59:00;;;;;;;2.67;1.63;;;;;;;20.15;59.84;100782.34;5033310;28;20425;-59
2022/05/08 04:01:26;;;;;;;2.27;1.37;;;;;;;20.15;59.94;100779.47;5032945;28;20423;-59
2022/05/08 04:03:51;;;;;;;2.20;1.40;;;;;;;20.15;59.73;100784.38;5033533;28;20530;-59
2022/05/08 04:06:17;;;;;;;4.50;2.00;;;;;;;20.15;59.92;100779.47;5033061;28;20500;-59
2022/05/08 04:08:42;;;;;;;2.40;1.60;;;;;;;20.15;59.75;100781.50;5032419;28;20679;-59
2022/05/08 04:11:08;;;;;;;2.87;1.37;;;;;;;20.15;59.99;100781.50;5032878;28;20173;-59
2022/05/08 04:13:34;;;;;;;3.53;2.00;;;;;;;20.14;59.95;100777.84;5033096;28;20177;-59
2022/05/08 04:16:17;;;;;;;2.50;1.57;;;;;;;20.15;60.07;100782.34;5032867;28;20187;-60
2022/05/08 04:18:43;;;;;;;1.93;1.40;;;;;;;20.14;59.84;100779.84;4984102;28;20200;-59
2022/05/08 04:21:09;;;;;;;3.00;1.60;;;;;;;20.14;59.72;100782.72;5029116;28;20435;-59
2022/05/08 04:26:18;;;;;;;2.33;1.13;;;;;;;20.13;59.84;100781.91;5031859;28;20202;-61
2022/05/08 04:28:44;;;;;;;2.60;1.60;;;;;;;20.13;59.94;100787.66;5032056;28;20423;-59
2022/05/08 04:31:09;;;;;;;2.37;1.40;;;;;;;20.13;60.15;100787.66;5031396;28;20173;-59
2022/05/08 04:33:38;;;;;;;2.20;1.40;;;;;;;20.12;59.74;100780.22;5031417;28;20208;-59
2022/05/08 04:36:04;;;;;;;2.97;1.70;;;;;;;20.11;59.86;100790.03;5032561;28;20411;-59
2022/05/08 04:38:29;;;;;;;2.60;1.40;;;;;;;20.12;59.92;100788.84;5032092;28;20450;-59
2022/05/08 04:40:55;;;;;;;2.40;1.40;;;;;;;20.13;59.91;100787.66;5014591;28;20176;-60
2022/05/08 04:43:20;;;;;;;2.57;1.40;;;;;;;20.13;60.01;100792.53;5032307;28;20596;-58
2022/05/08 04:45:46;;;;;;;3.20;1.67;;;;;;;20.13;60.07;100792.53;5031848;28;20172;-59
2022/05/08 04:48:11;;;;;;;2.20;1.40;;;;;;;20.13;59.99;100793.38;5030648;28;20191;-59
2022/05/08 04:50:38;;;;;;;2.23;1.30;;;;;;;20.13;60.10;100799.13;5030906;28;20183;-60
2022/05/08 04:53:04;;;;;;;2.40;1.40;;;;;;;20.13;59.74;100798.28;5030704;28;20259;-59
2022/05/08 04:55:30;;;;;;;3.67;2.17;;;;;;;20.13;59.76;100790.50;5030618;28;20467;-59
2022/05/08 04:57:55;;;;;;;2.20;1.40;;;;;;;20.14;59.85;100797.91;5029515;28;20501;-59
2022/05/08 05:00:21;;;;;;;2.73;1.67;;;;;;;20.13;59.97;100796.25;5031371;28;20176;-59
2022/05/08 05:02:47;;;;;;;2.43;1.50;;;;;;;20.15;59.80;100802.41;5031683;28;20644;-59
2022/05/08 05:05:12;;;;;;;2.17;1.20;;;;;;;20.17;59.48;100804.91;5032094;28;20413;-58
2022/05/08 05:07:47;;;;;;;2.60;1.80;;;;;;;20.19;59.75;100805.34;5013967;28;20827;-58
2022/05/08 05:10:13;;;;;;;2.80;1.40;;;;;;;20.17;59.71;100793.44;5032023;28;20183;-59
2022/05/08 05:12:39;;;;;;;5.40;1.73;;;;;;;20.18;59.67;100798.81;5031611;28;21042;-59
2022/05/08 05:15:07;;;;;;;2.33;1.40;;;;;;;20.18;59.77;100812.28;5031609;28;20454;-59
2022/05/08 05:17:33;;;;;;;1.80;1.30;;;;;;;20.17;59.80;100813.50;5030079;28;20180;-59
2022/05/08 05:19:59;;;;;;;3.00;1.97;;;;;;;20.18;59.90;100815.16;5031104;28;20457;-59
2022/05/08 05:22:24;;;;;;;2.20;1.40;;;;;;;20.18;59.87;100827.47;5031555;28;20188;-59
2022/05/08 05:24:49;;;;;;;2.80;1.47;;;;;;;20.19;59.53;100814.78;5031779;28;20247;-58
2022/05/08 05:27:15;;;;;;;2.40;1.70;;;;;;;20.18;59.88;100821.75;5031577;28;20743;-59
2022/05/08 05:29:40;;;;;;;3.20;1.70;;;;;;;20.17;59.85;100813.50;5031094;28;20350;-59
2022/05/08 05:32:06;;;;;;;2.00;1.37;;;;;;;20.16;59.60;100821.28;5031588;28;20192;-59
2022/05/08 05:34:32;;;;;;;2.10;1.30;;;;;;;20.16;59.85;100815.53;5031328;28;20203;-59
2022/05/08 05:36:57;;;;;;;2.37;1.40;;;;;;;20.15;59.91;100816.75;5031444;28;20518;-59
2022/05/08 05:39:26;;;;;;;2.90;1.60;;;;;;;20.16;59.91;100817.59;5030717;28;20207;-59
2022/05/08 05:41:51;;;;;;;2.27;1.47;;;;;;;20.15;60.04;100811.03;5031337;28;20604;-58
2022/05/08 05:44:16;;;;;;;2.87;1.43;;;;;;;20.16;59.72;100820.47;5031354;28;20408;-59
2022/05/08 05:49:27;;;;;;;2.40;1.40;;;;;;;20.15;59.50;100822.47;5031177;28;20187;-59
2022/05/08 05:51:56;;;;;;;2.27;1.37;;;;;;;20.17;60.14;100825.78;5031214;28;20480;-59
2022/05/08 05:54:22;;;;;;;2.37;1.33;;;;;;;20.16;59.86;100827.00;5031005;28;20453;-59
2022/05/08 05:56:48;;;;;;;3.50;1.50;;;;;;;20.16;59.86;100832.75;5030950;28;20535;-59
2022/05/08 05:59:14;;;;;;;2.63;1.70;;;;;;;20.17;59.72;100831.53;5031279;28;20403;-59
2022/05/08 06:01:39;;;;;;;2.30;1.50;;;;;;;20.16;59.78;100829.88;5030778;28;20545;-59
2022/05/08 06:04:05;;;;;;;2.87;1.57;;;;;;;20.15;59.89;100831.09;5030862;28;20176;-59
2022/05/08 06:06:30;;;;;;;2.00;1.37;;;;;;;20.16;59.93;100829.88;5030851;28;20255;-59
2022/05/08 06:08:55;;;;;;;1.90;1.17;;;;;;;20.17;59.86;100840.13;5030986;28;20176;-59
2022/05/08 06:11:21;;;;;;;2.63;1.40;;;;;;;20.18;59.70;100840.97;5030745;28;20188;-58
2022/05/08 06:13:46;;;;;;;2.53;1.57;;;;;;;20.17;59.91;100845.84;5030636;28;20601;-59
2022/05/08 06:16:12;;;;;;;3.47;1.17;;;;;;;20.18;59.81;100838.94;5030709;28;20172;-59
2022/05/08 06:18:37;;;;;;;1.87;1.20;;;;;;;20.17;59.87;100834.38;5031047;28;20624;-59
2022/05/08 06:21:03;;;;;;;2.27;1.33;;;;;;;20.17;59.82;100836.44;5030329;28;20184;-59
2022/05/08 06:23:28;;;;;;;2.60;1.53;;;;;;;20.16;59.87;100841.34;5027651;28;20222;-59
2022/05/08 06:25:54;;;;;;;2.37;1.23;;;;;;;20.16;60.02;100849.94;5030752;28;20176;-59
2022/05/08 06:28:19;;;;;;;2.43;1.43;;;;;;;20.16;59.68;100849.13;5029903;28;20678;-59
2022/05/08 06:30:48;;;;;;;2.47;1.47;;;;;;;20.16;59.99;100852.81;5030530;28;20250;-59
2022/05/08 06:33:13;;;;;;;2.27;1.33;;;;;;;20.15;59.75;100854.03;5030738;28;20647;-59
2022/05/08 06:35:39;;;;;;;3.70;1.97;;;;;;;20.15;59.95;100856.88;5030658;28;20461;-58
2022/05/08 06:38:06;;;;;;;2.30;1.37;;;;;;;20.15;60.20;100865.50;5030287;28;20235;-59
2022/05/08 06:40:31;;;;;;;2.70;1.47;;;;;;;20.15;59.72;100859.75;5030403;28;20173;-59
2022/05/08 06:42:56;;;;;;;2.20;1.40;;;;;;;20.15;60.01;100862.63;5030861;28;20419;-59
2022/05/08 06:45:25;;;;;;;3.20;1.73;;;;;;;20.16;59.90;100866.34;5030511;28;20172;-59
2022/05/08 06:47:50;;;;;;;2.27;1.17;;;;;;;20.15;59.92;100865.50;5030554;28;20183;-59
2022/05/08 06:50:19;;;;;;;2.47;1.30;;;;;;;20.16;60.20;100863.47;5030171;28;20431;-59
2022/05/08 06:52:45;;;;;;;2.30;1.50;;;;;;;20.16;60.30;100866.34;5034427;28;20176;-59
2022/05/08 06:55:10;;;;;;;2.43;1.60;;;;;;;20.15;59.95;100864.66;5034518;28;20528;-59
2022/05/08 06:57:36;;;;;;;2.20;1.37;;;;;;;20.15;59.92;100865.50;5034405;28;20208;-59
2022/05/08 07:02:47;;;;;;;2.23;1.50;;;;;;;20.15;59.82;100868.34;5034056;28;20234;-59
2022/05/08 07:05:13;;;;;;;3.60;1.20;;;;;;;20.15;60.04;100865.50;5034246;28;20415;-59
2022/05/08 07:07:38;;;;;;;2.73;1.37;;;;;;;20.14;60.02;100857.25;5033692;28;20450;-58
2022/05/08 07:10:04;;;;;;;2.30;1.40;;;;;;;20.14;60.12;100869.56;5034005;28;20196;-59
2022/05/08 07:12:29;;;;;;;3.80;1.40;;;;;;;20.13;59.86;100867.91;5033731;28;20184;-59
2022/05/08 07:14:55;;;;;;;2.30;1.53;;;;;;;20.14;60.37;100863.84;5033904;28;20188;-59
2022/05/08 07:17:21;;;;;;;2.50;1.50;;;;;;;20.14;59.88;100863.84;5033742;28;20215;-59
2022/05/08 07:19:48;;;;;;;1.97;1.33;;;;;;;20.14;59.92;100866.69;5014796;28;20189;-59
2022/05/08 07:22:15;;;;;;;2.20;1.47;;;;;;;20.14;59.92;100869.56;5032174;28;20798;-58
2022/05/08 07:24:41;;;;;;;2.80;1.43;;;;;;;20.14;59.90;100872.44;5032213;28;20740;-58
2022/05/08 07:27:10;;;;;;;2.10;1.17;;;;;;;20.14;60.00;100869.56;5032139;28;20414;-59
2022/05/08 07:29:36;;;;;;;2.37;1.67;;;;;;;20.15;59.74;100873.25;5031610;28;20283;-59
2022/05/08 07:32:02;;;;;;;2.50;1.50;;;;;;;20.14;59.91;100872.44;5031692;28;20415;-59
2022/05/08 07:37:12;;;;;;;2.40;1.53;;;;;;;20.15;59.98;100873.25;5033682;28;20180;-59
2022/05/08 07:39:37;;;;;;;2.67;1.40;;;;;;;20.14;60.32;100877.31;5033207;28;20415;-59
2022/05/08 07:42:03;;;;;;;2.70;1.30;;;;;;;20.14;60.03;100881.03;5031975;28;20222;-59
2022/05/08 07:44:28;;;;;;;2.20;1.57;;;;;;;20.13;59.91;100879.38;5033176;28;20177;-59
2022/05/08 07:46:54;;;;;;;3.00;1.63;;;;;;;20.14;59.80;100880.19;5033616;28;20185;-59
2022/05/08 07:49:19;;;;;;;2.20;1.40;;;;;;;20.13;59.97;100879.38;5033560;28;20180;-59
2022/05/08 07:51:44;;;;;;;1.80;1.13;;;;;;;20.13;60.15;100879.38;5033282;28;20207;-59
2022/05/08 07:54:10;;;;;;;2.43;1.27;;;;;;;20.14;59.80;100886.78;5033486;28;20184;-59
2022/05/08 07:56:36;;;;;;;2.97;1.30;;;;;;;20.14;59.94;100877.31;5032893;28;20184;-59
2022/05/08 07:59:02;;;;;;;2.40;1.50;;;;;;;20.13;60.06;100887.97;5031563;28;21215;-59
2022/05/08 08:01:27;;;;;;;2.43;1.40;;;;;;;20.13;59.87;100890.84;5031627;28;20177;-59
2022/05/08 08:03:53;;;;;;;2.30;1.53;;;;;;;20.14;59.95;100881.03;5031147;28;20529;-59
2022/05/08 08:06:18;;;;;;;2.50;1.50;;;;;;;20.13;59.91;100876.50;5031668;28;20172;-60
2022/05/08 08:08:44;;;;;;;2.00;1.40;;;;;;;20.14;59.93;100889.63;5031701;28;20164;-59
2022/05/08 08:11:11;;;;;;;2.80;1.50;;;;;;;20.13;59.83;100885.13;5031413;28;20169;-59
2022/05/08 08:13:36;;;;;;;2.20;1.50;;;;;;;20.13;60.00;100887.97;5032373;28;20210;-59
2022/05/08 08:16:02;;;;;;;1.93;1.27;;;;;;;20.13;60.06;100893.72;5032951;28;20498;-59
2022/05/08 08:18:27;;;;;;;2.10;1.37;;;;;;;20.14;59.74;100886.78;5013873;28;20263;-58
2022/05/08 08:20:53;;;;;;;3.03;1.40;;;;;;;20.14;59.81;100886.78;5031487;28;20280;-60
2022/05/08 08:23:18;;;;;;;2.57;1.60;;;;;;;20.13;59.75;100893.72;5033160;28;20200;-59
2022/05/08 08:25:44;;;;;;;1.90;1.20;;;;;;;20.14;59.71;100895.38;5032659;28;20169;-59
2022/05/08 08:28:10;;;;;;;2.77;1.70;;;;;;;20.14;60.03;100894.53;5031858;28;20195;-59
2022/05/08 08:30:36;;;;;;;2.27;1.30;;;;;;;20.14;59.87;100898.25;5032211;28;20466;-60
2022/05/08 08:33:01;;;;;;;2.03;1.20;;;;;;;20.14;59.87;100892.50;5032370;28;20200;-59
2022/05/08 08:35:27;;;;;;;4.00;1.30;;;;;;;20.14;59.93;100898.25;5031530;28;20192;-59
2022/05/08 08:37:53;;;;;;;2.50;1.47;;;;;;;20.15;59.96;100893.31;5031115;28;20214;-58
2022/05/08 08:40:18;;;;;;;2.23;1.60;;;;;;;20.14;59.72;100897.41;5032318;28;20169;-59
2022/05/08 08:42:44;;;;;;;3.20;1.50;;;;;;;20.13;59.67;100893.72;5032053;28;20523;-59
2022/05/08 08:48:06;;;;;;;2.73;1.57;;;;;;;20.14;59.69;100883.91;5031772;28;20246;-59
2022/05/08 08:50:32;;;;;;;3.10;1.40;;;;;;;20.15;60.02;100890.44;5032606;28;20427;-59
2022/05/08 08:52:59;;;;;;;2.27;1.47;;;;;;;20.14;60.01;100892.50;5032211;28;20864;-60
2022/05/08 08:55:24;;;;;;;2.30;1.40;;;;;;;20.14;59.84;100898.25;5031874;28;20208;-59
2022/05/08 08:57:50;;;;;;;2.70;1.80;;;;;;;20.14;59.95;100892.50;5032088;28;20497;-59
2022/05/08 09:00:18;;;;;;;2.10;1.47;;;;;;;20.13;59.99;100893.72;5032032;28;20179;-59
2022/05/08 09:02:45;;;;;;;2.20;1.20;;;;;;;20.14;59.95;100891.66;5030863;28;20184;-58
2022/05/08 09:05:10;;;;;;;2.93;1.50;;;;;;;20.15;60.01;100896.19;5030800;28;20498;-59
2022/05/08 09:07:38;;;;;;;2.23;1.50;;;;;;;20.14;59.74;100897.41;5031689;28;20427;-59
2022/05/08 09:10:07;;;;;;;2.07;1.30;;;;;;;20.14;59.90;100903.97;5032101;28;20674;-59
2022/05/08 09:12:33;;;;;;;2.00;1.40;;;;;;;20.14;59.96;100901.09;5032039;28;20423;-59
2022/05/08 09:14:59;;;;;;;2.43;1.43;;;;;;;20.13;60.05;100902.31;5013197;28;20481;-59
2022/05/08 09:17:24;;;;;;;2.40;1.30;;;;;;;20.14;59.89;100898.25;5031645;28;20188;-59
2022/05/08 09:19:50;;;;;;;3.07;1.47;;;;;;;20.15;59.83;100902.75;5014119;28;20237;-59
2022/05/08 09:22:17;;;;;;;3.40;1.37;;;;;;;20.14;59.85;100892.50;5030799;28;20295;-59
2022/05/08 09:24:53;;;;;;;1.93;1.23;;;;;;;20.15;59.99;100888.41;5031149;28;20424;-59
2022/05/08 09:27:18;;;;;;;2.23;1.30;;;;;;;20.15;59.94;100894.16;5029919;28;20435;-59
2022/05/08 09:29:44;;;;;;;2.00;1.30;;;;;;;20.15;59.80;100896.19;5031255;28;20494;-59
2022/05/08 09:32:10;;;;;;;2.10;1.40;;;;;;;20.15;60.02;100896.19;5031339;28;20246;-59
2022/05/08 09:35:02;;;;;;;2.17;1.43;;;;;;;20.14;59.74;100886.78;5014160;28;20216;-59
2022/05/08 09:37:28;;;;;;;2.53;1.53;;;;;;;20.14;60.16;100891.66;5027333;28;20459;-58
2022/05/08 09:40:15;;;;;;;2.57;1.37;;;;;;;20.15;59.95;100888.41;5013908;28;20430;-59
2022/05/08 09:42:41;;;;;;;2.50;1.40;;;;;;;20.13;60.27;100890.84;5012693;28;20199;-59
2022/05/08 09:45:07;;;;;;;2.40;1.50;;;;;;;20.14;59.80;100881.03;5029755;28;20407;-59
2022/05/08 09:47:48;;;;;;;2.27;1.53;;;;;;;20.16;59.99;100880.66;5030103;28;20278;-58
2022/05/08 09:50:16;;;;;;;2.60;1.57;;;;;;;20.15;59.88;100879.81;5031409;28;20828;-59
2022/05/08 09:52:42;;;;;;;2.50;1.60;;;;;;;20.15;59.91;100890.44;5030743;28;20937;-59
2022/05/08 09:55:09;;;;;;;3.03;1.60;;;;;;;20.15;59.92;100882.69;5031236;28;20454;-58
2022/05/08 09:57:35;;;;;;;2.70;1.70;;;;;;;20.14;59.90;100875.31;5030423;28;20423;-58
2022/05/08 10:00:01;;;;;;;2.70;1.80;;;;;;;20.15;59.84;100879.81;5030375;28;20518;-58
2022/05/08 10:02:26;;;;;;;2.67;1.70;;;;;;;20.15;59.96;100876.97;5030847;28;20188;-58
2022/05/08 10:04:52;;;;;;;2.27;1.43;;;;;;;20.14;59.95;100875.31;5012764;28;20431;-59
2022/05/08 10:07:18;;;;;;;2.33;1.50;;;;;;;20.15;60.09;100874.09;5029006;28;20184;-59
2022/05/08 10:15:18;;;;;;;3.30;1.80;;;;;;;20.17;59.97;100867.97;5014236;28;20449;-59
2022/05/08 10:17:44;;;;;;;2.63;1.40;;;;;;;20.16;60.06;100875.75;5028815;28;20514;-59
2022/05/08 10:20:09;;;;;;;2.00;1.40;;;;;;;20.16;60.05;100875.75;5029885;28;20423;-59
2022/05/08 10:22:48;;;;;;;3.13;1.30;;;;;;;20.16;59.85;100861.41;5030223;28;20177;-58
2022/05/08 10:25:15;;;;;;;3.50;1.17;;;;;;;20.16;59.89;100867.13;5029905;28;20172;-59
2022/05/08 10:27:41;;;;;;;2.10;1.37;;;;;;;20.17;59.94;100865.13;5032997;28;20430;-59
2022/05/08 10:30:06;;;;;;;2.00;1.30;;;;;;;20.17;60.04;100857.31;5034403;28;20451;-58
2022/05/08 10:32:32;;;;;;;2.67;1.63;;;;;;;20.17;59.75;100850.78;5034688;28;20226;-58
2022/05/08 10:35:03;;;;;;;3.27;2.00;;;;;;;20.19;59.87;100862.69;5034612;28;20189;-58
2022/05/08 10:37:29;;;;;;;2.47;1.50;;;;;;;20.19;59.40;100865.56;5034403;28;20693;-59
2022/05/08 10:39:54;;;;;;;2.60;1.60;;;;;;;20.19;59.73;100857.78;5035036;28;20457;-59
2022/05/08 10:42:39;;;;;;;2.97;1.50;;;;;;;20.18;59.79;100861.88;5034786;28;20179;-59
2022/05/08 10:45:05;;;;;;;2.07;1.27;;;;;;;20.20;59.86;100855.75;5033900;28;20176;-59
2022/05/08 10:47:33;;;;;;;2.70;1.70;;;;;;;20.18;60.00;100852.44;5013507;28;20500;-58
2022/05/08 10:49:59;;;;;;;2.33;1.20;;;;;;;20.19;59.99;100854.94;5034265;28;20215;-58
2022/05/08 10:52:25;;;;;;;4.73;1.50;;;;;;;20.19;59.68;100860.66;5034034;28;20455;-58
2022/05/08 10:54:56;;;;;;;2.33;1.47;;;;;;;20.19;59.70;100852.06;5034231;28;21098;-58
2022/05/08 10:57:32;;;;;;;2.33;1.53;;;;;;;20.19;59.92;100857.78;5034160;28;20191;-58
2022/05/08 10:59:57;;;;;;;2.40;1.57;;;;;;;20.19;59.79;100857.78;5034521;28;20457;-59
2022/05/08 11:02:41;;;;;;;3.70;1.50;;;;;;;20.20;59.82;100853.72;5033994;28;20423;-58
2022/05/08 11:05:07;;;;;;;2.97;1.50;;;;;;;20.20;60.08;100852.88;5034213;28;20176;-59
2022/05/08 11:07:32;;;;;;;1.83;1.10;;;;;;;20.19;59.78;100849.19;5032509;28;20447;-59
2022/05/08 11:09:58;;;;;;;2.40;1.60;;;;;;;20.21;59.80;100863.16;5033662;28;20429;-59
2022/05/08 11:12:24;;;;;;;5.57;1.60;;;;;;;20.22;59.69;100859.06;5033905;28;20188;-58
2022/05/08 11:14:49;;;;;;;5.10;1.50;;;;;;;20.21;60.03;100852.50;5033596;28;20951;-59
2022/05/08 11:17:19;;;;;;;1.90;1.40;;;;;;;20.22;59.92;100859.88;5033673;28;20553;-58
2022/05/08 11:19:56;;;;;;;2.10;1.47;;;;;;;20.24;59.91;100857.50;5034076;28;20489;-59
2022/05/08 11:22:22;;;;;;;2.30;1.57;;;;;;;20.23;59.39;100867.31;5016084;28;20434;-58
2022/05/08 11:24:49;;;;;;;2.90;1.40;;;;;;;20.24;59.58;100859.50;5033241;28;20434;-58
2022/05/08 11:27:14;;;;;;;2.63;1.80;;;;;;;20.22;59.75;100862.75;5033744;28;20180;-58
2022/05/08 11:29:47;;;;;;;2.33;1.50;;;;;;;20.23;59.87;100864.44;5033595;28;20835;-58
2022/05/08 11:38:05;;;;;;;2.53;1.30;;;;;;;20.24;60.03;100853.78;5010963;28;20439;-59
2022/05/08 11:40:31;;;;;;;2.80;1.33;;;;;;;20.22;60.40;100864.81;5033662;28;20489;-58
2022/05/08 11:42:56;;;;;;;2.13;1.47;;;;;;;20.22;59.91;100854.16;5015768;28;20419;-59
2022/05/08 11:45:22;;;;;;;2.40;1.60;;;;;;;20.22;59.93;100859.88;5033458;28;20169;-59
2022/05/08 11:47:51;;;;;;;2.77;1.70;;;;;;;20.23;59.78;100849.25;5015262;28;20176;-59
2022/05/08 11:50:17;;;;;;;3.50;1.60;;;;;;;20.24;59.83;100853.78;5033237;28;20279;-59
2022/05/08 11:52:42;;;;;;;3.27;1.80;;;;;;;20.23;59.81;100855.84;5033105;28;20955;-59